createdAt,value
2019-03-10T00:02:26.500Z,8.53
2019-03-10T00:04:58.989Z,8.50
2019-03-10T00:07:34.036Z,8.49
2019-03-10T00:10:08.700Z,8.49
2019-03-10T00:12:41.926Z,8.48
2019-03-10T00:15:16.378Z,8.46
2019-03-10T00:17:49.091Z,8.44
2019-03-10T00:20:22.079Z,8.41
2019-03-10T00:22:59.060Z,8.41
2019-03-10T00:25:31.814Z,8.43
2019-03-10T00:28:06.733Z,8.45
2019-03-10T00:30:40.578Z,8.45
2019-03-10T00:33:13.332Z,8.45
2019-03-10T00:35:46.003Z,8.44
2019-03-10T00:38:19.141Z,8.44
2019-03-10T00:41:34.921Z,8.44
2019-03-10T00:45:02.777Z,8.43
2019-03-10T00:48:43.166Z,8.42
2019-03-10T00:52:08.456Z,8.41
2019-03-10T00:54:52.890Z,8.42
2019-03-10T00:57:25.636Z,8.40
2019-03-10T01:00:00.547Z,8.37
2019-03-10T01:02:35.272Z,8.33
2019-03-10T01:05:08.197Z,8.34
2019-03-10T01:07:41.424Z,8.36
2019-03-10T01:10:15.354Z,8.36
2019-03-10T01:12:48.335Z,8.37
2019-03-10T01:15:22.815Z,8.36
2019-03-10T01:17:56.605Z,8.33
2019-03-10T01:20:30.222Z,8.33
2019-03-10T01:23:04.544Z,8.32
2019-03-10T01:25:37.286Z,8.32
2019-03-10T01:28:10.094Z,8.35
2019-03-10T01:31:08.057Z,8.38
2019-03-10T01:34:11.604Z,8.39
2019-03-10T01:36:44.299Z,8.38
2019-03-10T01:39:18.589Z,8.35
2019-03-10T01:41:51.457Z,8.31
2019-03-10T01:44:24.949Z,8.31
2019-03-10T01:46:57.897Z,8.30
2019-03-10T01:49:31.198Z,8.31
2019-03-10T01:52:04.402Z,8.30
2019-03-10T01:54:37.278Z,8.27
2019-03-10T01:57:10.053Z,8.24
2019-03-10T01:59:43.883Z,8.23
2019-03-10T02:02:25.186Z,8.22
2019-03-10T02:04:58.907Z,8.21
2019-03-10T02:07:33.490Z,8.22
2019-03-10T02:10:08.066Z,8.22
2019-03-10T02:12:41.386Z,8.23
2019-03-10T02:15:16.838Z,8.24
2019-03-10T02:17:50.682Z,8.24
2019-03-10T02:20:23.420Z,8.24
2019-03-10T02:22:57.920Z,8.23
2019-03-10T02:25:30.472Z,8.20
2019-03-10T02:28:03.701Z,8.15
2019-03-10T02:30:36.515Z,8.09
2019-03-10T02:33:09.087Z,8.07
2019-03-10T02:35:42.064Z,8.02
2019-03-10T02:38:14.548Z,7.95
2019-03-10T02:40:47.184Z,7.88
2019-03-10T02:43:20.227Z,7.81
2019-03-10T02:45:52.806Z,7.75
2019-03-10T02:48:25.398Z,7.70
2019-03-10T02:50:58.334Z,7.70
2019-03-10T02:53:31.335Z,7.66
2019-03-10T02:56:03.863Z,7.59
2019-03-10T02:58:36.663Z,7.53
2019-03-10T03:01:09.416Z,7.47
2019-03-10T03:03:42.223Z,7.43
2019-03-10T03:06:15.917Z,7.39
2019-03-10T03:08:48.369Z,7.35
2019-03-10T03:11:20.956Z,7.32
2019-03-10T03:13:55.026Z,7.28
2019-03-10T03:16:29.413Z,7.25
2019-03-10T03:19:01.815Z,7.22
2019-03-10T03:21:42.914Z,7.19
2019-03-10T03:24:17.120Z,7.17
2019-03-10T03:26:50.354Z,7.16
2019-03-10T03:29:23.114Z,7.16
2019-03-10T03:31:55.736Z,7.13
2019-03-10T03:34:28.225Z,7.12
2019-03-10T03:37:01.546Z,7.09
2019-03-10T03:39:43.136Z,7.06
2019-03-10T03:42:15.770Z,7.05
2019-03-10T03:44:49.391Z,7.03
2019-03-10T03:47:21.914Z,7.02
2019-03-10T03:49:56.112Z,7.01
2019-03-10T03:52:28.737Z,6.98
2019-03-10T03:55:01.305Z,6.97
2019-03-10T03:57:35.541Z,6.95
2019-03-10T04:00:08.220Z,6.94
2019-03-10T04:02:44.805Z,6.91
2019-03-10T04:05:17.547Z,6.89
2019-03-10T04:07:50.061Z,6.86
2019-03-10T04:10:22.405Z,6.85
2019-03-10T04:12:55.215Z,6.82
2019-03-10T04:15:27.763Z,6.82
2019-03-10T04:18:00.628Z,6.79
2019-03-10T04:20:35.035Z,6.78
2019-03-10T04:23:07.562Z,6.76
2019-03-10T04:25:40.071Z,6.75
2019-03-10T04:28:12.960Z,6.71
2019-03-10T04:30:46.835Z,6.68
2019-03-10T04:33:19.780Z,6.66
2019-03-10T04:35:52.878Z,6.63
2019-03-10T04:38:25.454Z,6.61
2019-03-10T04:40:57.849Z,6.59
2019-03-10T04:43:30.647Z,6.56
2019-03-10T04:46:03.214Z,6.53
2019-03-10T04:48:35.802Z,6.52
2019-03-10T04:51:08.541Z,6.49
2019-03-10T04:53:41.263Z,6.47
2019-03-10T04:56:20.249Z,6.47
2019-03-10T04:58:53.119Z,6.47
2019-03-10T05:01:25.691Z,6.47
2019-03-10T05:03:58.784Z,6.46
2019-03-10T05:06:31.914Z,6.44
2019-03-10T05:09:08.077Z,6.41
2019-03-10T05:11:40.937Z,6.40
2019-03-10T05:14:13.993Z,6.39
2019-03-10T05:16:47.677Z,6.37
2019-03-10T05:19:20.358Z,6.38
2019-03-10T05:21:53.434Z,6.34
2019-03-10T05:24:26.113Z,6.34
2019-03-10T05:26:58.582Z,6.31
2019-03-10T05:29:31.699Z,6.27
2019-03-10T05:32:04.881Z,6.28
2019-03-10T05:34:38.198Z,6.25
2019-03-10T05:37:11.304Z,6.23
2019-03-10T05:39:43.837Z,6.24
2019-03-10T05:42:16.973Z,6.22
2019-03-10T05:44:49.908Z,6.20
2019-03-10T05:47:22.658Z,6.17
2019-03-10T05:49:55.254Z,6.16
2019-03-10T05:52:29.666Z,6.14
2019-03-10T05:55:02.844Z,6.14
2019-03-10T05:57:35.295Z,6.11
2019-03-10T06:00:07.763Z,6.09
2019-03-10T06:02:40.282Z,6.07
2019-03-10T06:05:13.491Z,6.06
2019-03-10T06:07:46.222Z,6.06
2019-03-10T06:10:19.146Z,6.05
2019-03-10T06:12:51.871Z,6.03
2019-03-10T06:15:24.702Z,6.00
2019-03-10T06:17:57.284Z,5.97
2019-03-10T06:20:30.269Z,5.94
2019-03-10T06:23:03.135Z,5.93
2019-03-10T06:25:36.202Z,5.90
2019-03-10T06:28:08.874Z,5.88
2019-03-10T06:30:42.058Z,5.86
2019-03-10T06:33:14.528Z,5.85
2019-03-10T06:35:47.089Z,5.86
2019-03-10T06:38:20.146Z,5.87
2019-03-10T06:40:52.606Z,5.87
2019-03-10T06:43:25.240Z,5.84
2019-03-10T06:45:58.507Z,5.85
2019-03-10T06:48:31.098Z,5.85
2019-03-10T06:51:04.062Z,5.85
2019-03-10T06:53:38.399Z,5.83
2019-03-10T06:56:11.851Z,5.85
2019-03-10T06:58:45.114Z,5.88
2019-03-10T07:01:19.335Z,5.98
2019-03-10T07:03:51.827Z,5.94
2019-03-10T07:06:25.736Z,5.98
2019-03-10T07:08:59.981Z,6.15
2019-03-10T07:11:32.547Z,6.12
2019-03-10T07:14:05.183Z,6.09
2019-03-10T07:16:37.766Z,6.09
2019-03-10T07:19:10.572Z,6.09
2019-03-10T07:21:43.130Z,6.09
2019-03-10T07:24:17.077Z,6.07
2019-03-10T07:26:49.958Z,6.04
2019-03-10T07:29:26.808Z,6.03
2019-03-10T07:32:22.310Z,6.03
2019-03-10T07:35:31.113Z,6.03
2019-03-10T07:38:28.729Z,6.04
2019-03-10T07:41:06.769Z,6.05
2019-03-10T07:43:47.371Z,6.08
2019-03-10T07:46:26.986Z,6.14
2019-03-10T07:49:09.550Z,6.22
2019-03-10T07:51:50.430Z,6.26
2019-03-10T07:54:32.201Z,6.36
2019-03-10T07:57:24.531Z,6.42
2019-03-10T08:00:15.710Z,6.53
2019-03-10T08:03:09.862Z,6.58
2019-03-10T08:06:14.007Z,6.71
2019-03-10T08:08:52.527Z,6.88
2019-03-10T08:11:30.934Z,6.95
2019-03-10T08:14:16.677Z,6.98
2019-03-10T08:17:02.176Z,7.03
2019-03-10T08:19:47.016Z,7.09
2019-03-10T08:22:34.936Z,7.20
2019-03-10T08:25:21.267Z,7.28
2019-03-10T08:28:09.594Z,7.42
2019-03-10T08:30:48.628Z,7.51
2019-03-10T08:33:43.009Z,7.62
2019-03-10T08:36:24.470Z,7.70
2019-03-10T08:39:25.467Z,7.87
2019-03-10T08:42:25.678Z,8.06
2019-03-10T08:45:05.759Z,8.12
2019-03-10T08:48:00.210Z,8.25
2019-03-10T08:50:55.345Z,8.46
2019-03-10T08:53:41.452Z,8.59
2019-03-10T08:56:29.858Z,8.76
2019-03-10T08:59:29.140Z,8.76
2019-03-10T09:02:42.837Z,8.74
2019-03-10T09:05:25.118Z,8.78
2019-03-10T09:08:04.564Z,8.89
2019-03-10T09:10:52.728Z,8.91
2019-03-10T09:13:36.532Z,9.00
2019-03-10T09:16:21.473Z,9.06
2019-03-10T09:19:06.943Z,9.11
2019-03-10T09:21:53.948Z,9.22
2019-03-10T09:24:48.794Z,9.36
2019-03-10T09:27:43.288Z,9.52
2019-03-10T09:30:28.697Z,9.63
2019-03-10T09:33:18.841Z,9.72
2019-03-10T09:36:16.726Z,9.77
2019-03-10T09:39:21.319Z,9.78
2019-03-10T09:42:14.914Z,9.88
2019-03-10T09:44:56.402Z,9.94
2019-03-10T09:47:51.716Z,9.99
2019-03-10T09:50:55.018Z,9.99
2019-03-10T09:53:49.029Z,9.99
2019-03-10T09:56:39.932Z,10.01
2019-03-10T09:59:20.676Z,10.02
2019-03-10T10:02:06.583Z,10.08
2019-03-10T10:04:50.161Z,10.13
2019-03-10T10:07:32.746Z,10.21
2019-03-10T10:10:15.845Z,10.30
2019-03-10T10:13:00.332Z,10.33
2019-03-10T10:15:51.632Z,10.35
2019-03-10T10:18:43.468Z,10.40
2019-03-10T10:21:22.037Z,10.40
2019-03-10T10:24:18.906Z,10.45
2019-03-10T10:27:13.420Z,10.61
2019-03-10T10:29:58.696Z,10.70
2019-03-10T10:33:05.795Z,10.85
2019-03-10T10:36:11.409Z,11.26
2019-03-10T10:39:13.327Z,11.58
2019-03-10T10:41:54.229Z,11.87
2019-03-10T10:44:48.817Z,12.07
2019-03-10T10:47:50.916Z,12.04
2019-03-10T10:50:57.713Z,11.85
2019-03-10T10:53:56.025Z,11.78
2019-03-10T10:56:58.331Z,11.78
2019-03-10T10:59:41.651Z,11.89
2019-03-10T11:02:23.026Z,12.08
2019-03-10T11:05:15.948Z,12.18
2019-03-10T11:07:58.489Z,12.36
2019-03-10T11:10:56.362Z,12.33
2019-03-10T11:13:56.961Z,12.24
2019-03-10T11:16:38.808Z,12.13
2019-03-10T11:19:19.807Z,11.85
2019-03-10T11:22:10.888Z,11.45
2019-03-10T11:25:06.261Z,11.10
2019-03-10T11:28:09.109Z,10.70
2019-03-10T11:31:02.356Z,10.44
2019-03-10T11:33:53.112Z,10.28
2019-03-10T11:36:47.277Z,10.34
2019-03-10T11:39:30.838Z,10.57
2019-03-10T11:42:11.144Z,10.66
2019-03-10T11:45:10.059Z,10.66
2019-03-10T11:48:08.266Z,10.65
2019-03-10T11:50:58.839Z,10.72
2019-03-10T11:53:58.580Z,10.79
2019-03-10T11:56:57.834Z,10.78
2019-03-10T12:00:06.303Z,10.80
2019-03-10T12:02:49.103Z,10.93
2019-03-10T12:05:31.874Z,11.07
2019-03-10T12:08:12.398Z,11.17
2019-03-10T12:10:46.819Z,11.20
2019-03-10T12:13:25.752Z,11.23
2019-03-10T12:16:01.456Z,11.28
2019-03-10T12:18:37.747Z,11.25
2019-03-10T12:21:16.053Z,11.07
2019-03-10T12:23:55.295Z,10.97
2019-03-10T12:26:34.928Z,10.87
2019-03-10T12:29:16.589Z,10.70
2019-03-10T12:31:57.394Z,10.64
2019-03-10T12:34:37.003Z,10.72
2019-03-10T12:37:20.128Z,10.84
2019-03-10T12:39:58.548Z,10.82
2019-03-10T12:42:35.431Z,10.78
2019-03-10T12:45:17.508Z,10.74
2019-03-10T12:48:05.596Z,10.55
2019-03-10T12:51:04.590Z,10.26
2019-03-10T12:53:53.948Z,10.01
2019-03-10T12:56:45.348Z,9.85
2019-03-10T12:59:28.745Z,9.69
2019-03-10T13:02:15.106Z,9.60
2019-03-10T13:04:58.732Z,9.54
2019-03-10T13:07:45.781Z,9.51
2019-03-10T13:10:32.558Z,9.53
2019-03-10T13:13:06.484Z,9.60
2019-03-10T13:15:49.016Z,9.70
2019-03-10T13:18:22.623Z,9.90
2019-03-10T13:21:08.053Z,10.26
2019-03-10T13:23:47.320Z,10.42
2019-03-10T13:26:30.906Z,10.52
2019-03-10T13:29:04.803Z,10.69
2019-03-10T13:31:46.514Z,10.91
2019-03-10T13:34:30.363Z,11.29
2019-03-10T13:37:15.513Z,11.63
2019-03-10T13:39:59.040Z,11.99
2019-03-10T13:42:37.984Z,12.03
2019-03-10T13:45:18.661Z,12.10
2019-03-10T13:47:53.670Z,12.29
2019-03-10T13:50:33.202Z,12.44
2019-03-10T13:53:11.395Z,12.32
2019-03-10T13:55:51.511Z,12.06
2019-03-10T13:58:28.415Z,12.00
2019-03-10T14:01:06.264Z,11.93
2019-03-10T14:03:50.592Z,11.71
2019-03-10T14:06:41.412Z,11.54
2019-03-10T14:09:16.553Z,11.42
2019-03-10T14:11:50.819Z,11.36
2019-03-10T14:14:27.328Z,11.45
2019-03-10T14:17:00.371Z,11.50
2019-03-10T14:19:33.459Z,11.50
2019-03-10T14:22:13.288Z,11.52
2019-03-10T14:24:46.308Z,11.56
2019-03-10T14:27:21.934Z,11.48
2019-03-10T14:29:56.600Z,11.33
2019-03-10T14:32:35.366Z,11.08
2019-03-10T14:35:22.669Z,10.93
2019-03-10T14:38:15.951Z,10.75
2019-03-10T14:40:56.139Z,10.64
2019-03-10T14:43:29.385Z,10.53
2019-03-10T14:46:05.510Z,10.43
2019-03-10T14:48:51.264Z,10.31
2019-03-10T14:51:42.023Z,10.18
2019-03-10T14:54:18.810Z,10.03
2019-03-10T14:56:55.489Z,9.95
2019-03-10T14:59:32.119Z,9.87
2019-03-10T15:02:07.335Z,9.79
2019-03-10T15:04:44.153Z,9.73
2019-03-10T15:07:19.381Z,9.71
2019-03-10T15:09:57.839Z,9.66
2019-03-10T15:12:31.851Z,9.61
2019-03-10T15:15:22.439Z,9.56
2019-03-10T15:17:59.516Z,9.47
2019-03-10T15:20:44.904Z,9.42
2019-03-10T15:23:33.531Z,9.34
2019-03-10T15:26:12.512Z,9.31
2019-03-10T15:28:54.311Z,9.31
2019-03-10T15:31:32.402Z,9.29
2019-03-10T15:34:11.685Z,9.33
2019-03-10T15:36:57.511Z,9.38
2019-03-10T15:39:38.971Z,9.37
2019-03-10T15:42:13.684Z,9.41
2019-03-10T15:45:33.573Z,9.41
2019-03-10T15:48:07.637Z,9.39
2019-03-10T15:50:41.195Z,9.33
2019-03-10T15:53:21.190Z,9.21
2019-03-10T15:55:56.764Z,9.05
2019-03-10T15:58:31.927Z,8.93
2019-03-10T16:01:07.150Z,8.84
2019-03-10T16:03:45.241Z,8.74
2019-03-10T16:06:21.136Z,8.61
2019-03-10T16:08:55.888Z,8.53
2019-03-10T16:11:29.081Z,8.41
2019-03-10T16:14:04.338Z,8.32
2019-03-10T16:16:41.637Z,8.27
2019-03-10T16:19:14.663Z,8.17
2019-03-10T16:21:48.479Z,7.99
2019-03-10T16:24:21.648Z,7.87
2019-03-10T16:26:54.351Z,7.81
2019-03-10T16:29:32.713Z,7.68
2019-03-10T16:32:07.903Z,7.48
2019-03-10T16:34:43.169Z,7.21
2019-03-10T16:37:22.035Z,7.06
2019-03-10T16:39:57.489Z,7.00
2019-03-10T16:42:40.021Z,7.02
2019-03-10T16:45:26.396Z,7.05
2019-03-10T16:48:08.168Z,7.01
2019-03-10T16:50:46.385Z,7.01
2019-03-10T16:53:27.505Z,7.00
2019-03-10T16:56:03.235Z,6.78
2019-03-10T16:58:38.366Z,6.52
2019-03-10T17:01:15.034Z,6.38
2019-03-10T17:03:49.836Z,6.19
2019-03-10T17:06:26.046Z,5.94
2019-03-10T17:08:59.673Z,5.74
2019-03-10T17:11:39.259Z,5.55
2019-03-10T17:14:17.463Z,5.45
2019-03-10T17:16:54.216Z,5.45
2019-03-10T17:19:29.058Z,5.44
2019-03-10T17:22:34.930Z,5.39
2019-03-10T17:25:16.518Z,5.34
2019-03-10T17:27:52.621Z,5.33
2019-03-10T17:30:30.423Z,5.37
2019-03-10T17:33:06.503Z,5.39
2019-03-10T17:35:49.687Z,5.36
2019-03-10T17:38:24.458Z,5.39
2019-03-10T17:40:59.937Z,5.39
2019-03-10T17:43:36.541Z,5.42
2019-03-10T17:46:11.191Z,5.42
2019-03-10T17:48:46.559Z,5.39
2019-03-10T17:51:23.261Z,5.41
2019-03-10T17:53:57.165Z,5.41
2019-03-10T17:56:37.085Z,5.36
2019-03-10T17:59:11.864Z,5.33
2019-03-10T18:01:50.158Z,5.30
2019-03-10T18:04:24.728Z,5.34
2019-03-10T18:07:30.277Z,5.39
2019-03-10T18:10:35.938Z,5.38
2019-03-10T18:13:32.153Z,5.41
2019-03-10T18:16:18.400Z,5.52
2019-03-10T18:18:59.372Z,5.51
2019-03-10T18:21:41.425Z,5.54
2019-03-10T18:24:19.975Z,5.60
2019-03-10T18:26:56.811Z,5.69
2019-03-10T18:29:33.995Z,5.63
2019-03-10T18:32:13.209Z,5.67
2019-03-10T18:34:49.047Z,5.77
2019-03-10T18:37:23.701Z,5.79
2019-03-10T18:39:57.967Z,5.77
2019-03-10T18:42:31.799Z,5.65
2019-03-10T18:45:22.528Z,5.67
2019-03-10T18:47:57.805Z,5.68
2019-03-10T18:50:32.149Z,5.72
2019-03-10T18:53:06.669Z,5.73
2019-03-10T18:55:40.193Z,5.70
2019-03-10T18:58:14.348Z,5.67
2019-03-10T19:00:47.875Z,5.71
2019-03-10T19:03:26.536Z,5.67
2019-03-10T19:06:00.121Z,5.64
2019-03-10T19:08:35.924Z,5.53
2019-03-10T19:11:10.645Z,5.54
2019-03-10T19:13:48.777Z,5.58
2019-03-10T19:16:34.938Z,5.51
2019-03-10T19:19:17.701Z,5.37
2019-03-10T19:21:55.448Z,5.28
2019-03-10T19:24:30.308Z,5.18
2019-03-10T19:27:06.351Z,5.23
2019-03-10T19:29:40.170Z,5.14
2019-03-10T19:32:14.221Z,5.10
2019-03-10T19:34:52.664Z,5.12
2019-03-10T19:37:30.410Z,5.14
2019-03-10T19:43:28.759Z,5.14
2019-03-10T19:46:02.275Z,5.18
2019-03-10T19:48:36.213Z,5.13
2019-03-10T19:51:10.066Z,5.16
2019-03-10T19:53:46.176Z,5.20
2019-03-10T19:56:24.015Z,5.24
2019-03-10T20:01:57.584Z,5.02
2019-03-10T20:04:32.205Z,4.59
2019-03-10T20:07:05.810Z,4.17
2019-03-10T20:09:45.509Z,3.72
2019-03-10T20:12:19.030Z,3.28
2019-03-10T20:14:51.815Z,2.99
2019-03-10T20:17:24.851Z,2.77
2019-03-10T20:20:10.024Z,2.54
2019-03-10T20:22:46.329Z,2.27
2019-03-10T20:25:20.144Z,2.11
2019-03-10T20:27:53.703Z,2.00
2019-03-10T20:30:29.389Z,2.01
2019-03-10T20:33:04.781Z,2.07
2019-03-10T20:35:38.208Z,2.09
2019-03-10T20:38:12.343Z,2.14
2019-03-10T20:40:47.049Z,2.19
2019-03-10T20:43:22.469Z,2.25
2019-03-10T20:45:57.134Z,2.30
2019-03-10T20:48:33.316Z,2.33
2019-03-10T20:51:08.734Z,2.36
2019-03-10T20:53:42.956Z,2.35
2019-03-10T20:56:16.938Z,2.37
2019-03-10T20:58:50.469Z,2.37
2019-03-10T21:01:32.038Z,2.33
2019-03-10T21:04:08.261Z,2.24
2019-03-10T21:06:42.325Z,2.22
2019-03-10T21:09:19.626Z,2.21
2019-03-10T21:11:54.196Z,2.25
2019-03-10T21:14:29.473Z,2.26
2019-03-10T21:17:02.774Z,2.25
2019-03-10T21:19:35.948Z,2.36
2019-03-10T21:22:10.594Z,2.39
2019-03-10T21:24:46.374Z,2.39
2019-03-10T21:27:22.290Z,2.42
2019-03-10T21:29:54.908Z,2.40
2019-03-10T21:32:32.293Z,2.42
2019-03-10T21:35:16.861Z,2.41
2019-03-10T21:37:52.129Z,2.44
2019-03-10T21:40:26.255Z,2.48
2019-03-10T21:43:02.984Z,2.51
2019-03-10T21:45:36.701Z,2.49
2019-03-10T21:48:10.621Z,2.46
2019-03-10T21:50:45.260Z,2.40
2019-03-10T21:53:18.771Z,2.34
2019-03-10T21:55:56.463Z,2.30
2019-03-10T21:58:29.172Z,2.25
2019-03-10T22:01:03.099Z,2.18
2019-03-10T22:03:38.728Z,2.20
2019-03-10T22:06:12.419Z,2.20
2019-03-10T22:08:45.149Z,2.17
2019-03-10T22:11:20.922Z,2.11
2019-03-10T22:13:55.976Z,2.10
2019-03-10T22:16:29.808Z,2.15
2019-03-10T22:19:03.521Z,2.23
2019-03-10T22:21:37.230Z,2.26
2019-03-10T22:24:11.662Z,2.24
2019-03-10T22:26:45.038Z,2.21
2019-03-10T22:29:18.546Z,2.22
2019-03-10T22:31:54.902Z,2.17
2019-03-10T22:34:28.722Z,2.18
2019-03-10T22:37:01.575Z,2.20
2019-03-10T22:39:35.032Z,2.23
2019-03-10T22:42:09.340Z,2.27
2019-03-10T22:44:42.496Z,2.26
2019-03-10T22:47:15.035Z,2.25
2019-03-10T22:49:47.729Z,2.23
2019-03-10T22:52:21.650Z,2.23
2019-03-10T22:54:56.020Z,2.27
2019-03-10T22:57:29.504Z,2.32
2019-03-10T23:00:08.905Z,2.36
2019-03-10T23:02:41.542Z,2.41
2019-03-10T23:05:14.259Z,2.49
2019-03-10T23:07:50.154Z,2.56
2019-03-10T23:10:27.798Z,2.62
2019-03-10T23:13:00.783Z,2.67
2019-03-10T23:15:41.431Z,2.69
2019-03-10T23:18:14.037Z,2.79
2019-03-10T23:20:55.051Z,2.90
2019-03-10T23:23:28.997Z,2.98
2019-03-10T23:26:02.423Z,3.09
2019-03-10T23:28:35.634Z,3.21
2019-03-10T23:31:09.198Z,3.27
2019-03-10T23:33:41.683Z,3.37
2019-03-10T23:36:16.034Z,3.46
2019-03-10T23:38:48.495Z,3.51
2019-03-10T23:41:24.236Z,3.54
2019-03-10T23:43:57.556Z,3.60
2019-03-10T23:46:30.944Z,3.62
2019-03-10T23:49:03.606Z,3.65
2019-03-10T23:51:36.828Z,3.61
2019-03-10T23:54:09.331Z,3.55
2019-03-10T23:56:41.964Z,3.53
2019-03-10T23:59:15.901Z,3.54
